Time;durP1;ratioP1;P1;durP2;ratioP2;P2;SDS_P1;SDS_P2;PMS_P1;PMS_P2;Temp;Humidity;BMP_temperature;BMP_pressure;BME280_temperature;BME280_humidity;BME280_pressure;Samples;Min_cycle;Max_cycle;Signal;HPM_P1;HPM_P2
2022/05/29 00:00:11;;;;;;;;;;;12.80;99.90;;;;;;5094202;28;19920;-70
2022/05/29 00:02:37;;;;;;;;;;;12.70;99.90;;;;;;5094095;28;20257;-70
2022/05/29 00:05:02;;;;;;;;;;;12.80;99.90;;;;;;5094471;28;19920;-70
2022/05/29 00:07:28;;;;;;;;;;;12.80;99.90;;;;;;5094216;28;20001;-69
2022/05/29 00:09:53;;;;;;;;;;;12.90;99.90;;;;;;5094181;28;19936;-69
2022/05/29 00:12:20;;;;;;;;;;;12.80;99.90;;;;;;5093919;28;19930;-69
2022/05/29 00:14:47;;;;;;;;;;;12.80;99.90;;;;;;5093813;28;19916;-70
2022/05/29 00:17:14;;;;;;;;;;;12.80;99.90;;;;;;5093856;28;19912;-69
2022/05/29 00:19:39;;;;;;;;;;;12.80;99.90;;;;;;5093424;28;19921;-69
2022/05/29 00:22:05;;;;;;;;;;;12.80;99.90;;;;;;5093463;28;19961;-70
2022/05/29 00:24:31;;;;;;;;;;;12.80;99.90;;;;;;5093381;28;19916;-70
2022/05/29 00:26:56;;;;;;;;;;;12.80;99.90;;;;;;5093325;28;19908;-70
2022/05/29 00:29:22;;;;;;;;;;;12.80;99.90;;;;;;5093196;28;20007;-70
2022/05/29 00:31:47;;;;;;;;;;;12.80;99.90;;;;;;5091917;28;19912;-69
2022/05/29 00:34:13;;;;;;;;;;;12.90;99.90;;;;;;5093051;28;19908;-70
2022/05/29 00:36:40;;;;;;;;;;;12.80;99.90;;;;;;5093186;28;19908;-70
2022/05/29 00:39:07;;;;;;;;;;;12.80;99.90;;;;;;5092982;28;20006;-71
2022/05/29 00:41:33;;;;;;;;;;;12.80;99.90;;;;;;5093116;28;19916;-70
2022/05/29 00:44:10;;;;;;;;;;;12.80;99.90;;;;;;5092756;28;20339;-70
2022/05/29 00:46:36;;;;;;;;;;;12.80;99.90;;;;;;5092948;28;20407;-70
2022/05/29 00:49:06;;;;;;;;;;;12.70;99.90;;;;;;5092897;28;19912;-70
2022/05/29 00:51:32;;;;;;;;;;;12.80;99.90;;;;;;5091641;28;20380;-70
2022/05/29 00:53:58;;;;;;;;;;;12.90;99.90;;;;;;5092584;28;20316;-70
2022/05/29 00:56:24;;;;;;;;;;;12.90;99.90;;;;;;5091509;28;19915;-70
2022/05/29 00:58:49;;;;;;;;;;;12.90;99.90;;;;;;5091412;28;19908;-70
2022/05/29 01:01:15;;;;;;;;;;;12.90;99.90;;;;;;5091475;28;19997;-70
2022/05/29 01:03:40;;;;;;;;;;;12.90;99.90;;;;;;5091680;28;20359;-70
2022/05/29 01:06:06;;;;;;;;;;;12.90;99.90;;;;;;5093043;28;19974;-72
2022/05/29 01:08:33;;;;;;;;;;;12.90;99.90;;;;;;5091367;28;19908;-70
2022/05/29 01:11:11;;;;;;;;;;;12.90;99.90;;;;;;5092990;28;20291;-70
2022/05/29 01:13:43;;;;;;;;;;;12.90;99.90;;;;;;5092650;28;19909;-70
2022/05/29 01:16:21;;;;;;;;;;;12.80;99.90;;;;;;5091394;28;20324;-70
2022/05/29 01:18:46;;;;;;;;;;;12.80;99.90;;;;;;5091277;28;19912;-71
2022/05/29 01:21:41;;;;;;;;;;;12.80;99.90;;;;;;5092063;28;19924;-70
2022/05/29 01:24:32;;;;;;;;;;;12.80;99.90;;;;;;5078744;28;19919;-70
2022/05/29 01:27:04;;;;;;;;;;;12.80;99.90;;;;;;5092291;28;19952;-70
2022/05/29 01:29:45;;;;;;;;;;;12.80;99.90;;;;;;5092172;28;19916;-70
2022/05/29 01:32:16;;;;;;;;;;;12.70;99.90;;;;;;5092264;28;19989;-70
2022/05/29 01:34:45;;;;;;;;;;;12.70;99.90;;;;;;5092218;28;19923;-71
2022/05/29 01:37:14;;;;;;;;;;;12.70;99.90;;;;;;5092733;28;19909;-71
2022/05/29 01:39:42;;;;;;;;;;;12.70;99.90;;;;;;5092103;28;19973;-70
2022/05/29 01:42:21;;;;;;;;;;;12.70;99.90;;;;;;5092164;28;19917;-71
2022/05/29 01:45:13;;;;;;;;;;;12.70;99.90;;;;;;5092064;28;19917;-70
2022/05/29 01:47:44;;;;;;;;;;;12.70;99.90;;;;;;5068110;28;19917;-71
2022/05/29 01:50:13;;;;;;;;;;;12.70;99.90;;;;;;5091269;28;20019;-70
2022/05/29 01:52:42;;;;;;;;;;;12.70;99.90;;;;;;5090402;28;19912;-70
2022/05/29 01:55:08;;;;;;;;;;;12.60;99.90;;;;;;5091937;28;19974;-70
2022/05/29 01:57:36;;;;;;;;;;;12.60;99.90;;;;;;5090730;28;19939;-70
2022/05/29 02:00:07;;;;;;;;;;;12.60;99.90;;;;;;5090136;28;19946;-70
2022/05/29 02:02:38;;;;;;;;;;;12.60;99.90;;;;;;5091735;28;19912;-70
2022/05/29 02:05:07;;;;;;;;;;;12.60;99.90;;;;;;5091715;28;19995;-70
2022/05/29 02:07:48;;;;;;;;;;;12.60;99.90;;;;;;5090333;28;20314;-70
2022/05/29 02:10:37;;;;;;;;;;;12.60;99.90;;;;;;5091983;28;19920;-69
2022/05/29 02:13:12;;;;;;;;;;;12.50;99.90;;;;;;5091550;28;19908;-69
2022/05/29 02:15:43;;;;;;;;;;;12.50;99.90;;;;;;5090475;28;19916;-70
2022/05/29 02:18:12;;;;;;;;;;;12.50;99.90;;;;;;5091604;28;20016;-69
2022/05/29 02:20:41;;;;;;;;;;;12.50;99.90;;;;;;5091168;28;20430;-70
2022/05/29 02:23:36;;;;;;;;;;;12.60;99.90;;;;;;5091460;28;20336;-70
2022/05/29 02:26:04;;;;;;;;;;;12.50;99.90;;;;;;5072564;28;19916;-69
2022/05/29 02:28:35;;;;;;;;;;;12.40;99.90;;;;;;5091561;28;19995;-70
2022/05/29 02:31:07;;;;;;;;;;;12.40;99.90;;;;;;5091873;28;20427;-69
2022/05/29 02:33:41;;;;;;;;;;;12.40;99.90;;;;;;5091399;28;19908;-69
2022/05/29 02:36:23;;;;;;;;;;;12.40;99.90;;;;;;5090331;28;19927;-70
2022/05/29 02:38:57;;;;;;;;;;;12.40;99.90;;;;;;5091470;28;19912;-69
2022/05/29 02:41:29;;;;;;;;;;;12.30;99.90;;;;;;5091107;28;19967;-70
2022/05/29 02:44:05;;;;;;;;;;;12.30;99.90;;;;;;5091143;28;19951;-70
2022/05/29 02:46:33;;;;;;;;;;;12.20;99.90;;;;;;5091385;28;19987;-69
2022/05/29 02:49:02;;;;;;;;;;;12.20;99.90;;;;;;5091156;28;20002;-69
2022/05/29 02:51:39;;;;;;;;;;;12.20;99.90;;;;;;5089750;28;19908;-70
2022/05/29 02:54:05;;;;;;;;;;;12.10;99.90;;;;;;5091043;28;19994;-69
2022/05/29 02:56:30;;;;;;;;;;;12.10;99.90;;;;;;5091150;28;20018;-69
2022/05/29 02:58:57;;;;;;;;;;;12.00;99.90;;;;;;5091121;28;19952;-70
2022/05/29 03:01:43;;;;;;;;;;;12.00;99.90;;;;;;5089709;28;19923;-70
2022/05/29 03:04:30;;;;;;;;;;;12.00;99.90;;;;;;5094789;28;19919;-70
2022/05/29 03:07:01;;;;;;;;;;;12.00;99.90;;;;;;5095076;28;19908;-70
2022/05/29 03:09:46;;;;;;;;;;;11.90;99.90;;;;;;5095024;28;20264;-69
2022/05/29 03:12:22;;;;;;;;;;;11.90;99.90;;;;;;5093361;28;20383;-70
2022/05/29 03:14:53;;;;;;;;;;;11.90;99.90;;;;;;5094955;28;20339;-69
2022/05/29 03:17:37;;;;;;;;;;;11.90;99.90;;;;;;5094715;28;19912;-69
2022/05/29 03:20:13;;;;;;;;;;;11.90;99.90;;;;;;5094525;28;19960;-70
2022/05/29 03:22:38;;;;;;;;;;;11.90;99.90;;;;;;5094448;28;19919;-69
2022/05/29 03:25:09;;;;;;;;;;;11.90;99.90;;;;;;5094732;28;19928;-71
2022/05/29 03:27:41;;;;;;;;;;;11.90;99.90;;;;;;5093028;28;19919;-70
2022/05/29 03:30:12;;;;;;;;;;;11.90;99.90;;;;;;5094713;28;19916;-70
2022/05/29 03:32:38;;;;;;;;;;;11.90;99.90;;;;;;5094452;28;20355;-70
2022/05/29 03:35:22;;;;;;;;;;;11.90;99.90;;;;;;5094574;28;19951;-70
2022/05/29 03:37:48;;;;;;;;;;;11.90;99.90;;;;;;5094403;28;19908;-69
2022/05/29 03:40:14;;;;;;;;;;;11.80;99.90;;;;;;5094568;28;19920;-70
2022/05/29 03:42:40;;;;;;;;;;;11.90;99.90;;;;;;5092973;28;19927;-70
2022/05/29 03:45:06;;;;;;;;;;;11.90;99.90;;;;;;5094442;28;19916;-70
2022/05/29 03:47:32;;;;;;;;;;;11.90;99.90;;;;;;5094125;28;20307;-70
2022/05/29 03:49:58;;;;;;;;;;;11.90;99.90;;;;;;5094327;28;19916;-70
2022/05/29 03:52:23;;;;;;;;;;;11.90;99.90;;;;;;5092719;28;20175;-71
2022/05/29 03:54:51;;;;;;;;;;;11.20;99.90;;;;;;5092639;28;19943;-71
2022/05/29 03:57:17;;;;;;;;;;;12.00;99.90;;;;;;5093909;28;19995;-70
2022/05/29 03:59:42;;;;;;;;;;;12.00;99.90;;;;;;5092695;28;20011;-70
2022/05/29 04:02:07;;;;;;;;;;;12.10;99.90;;;;;;5094292;28;19934;-70
2022/05/29 04:04:33;;;;;;;;;;;12.10;99.90;;;;;;5094015;28;19923;-69
2022/05/29 04:06:58;;;;;;;;;;;12.10;99.90;;;;;;5092527;28;19912;-70
2022/05/29 04:12:08;;;;;;;;;;;12.10;99.90;;;;;;5093792;28;19962;-70
2022/05/29 04:14:35;;;;;;;;;;;12.20;99.90;;;;;;5093580;28;19916;-70
2022/05/29 04:17:00;;;;;;;;;;;12.30;99.90;;;;;;5092456;28;19908;-70
2022/05/29 04:19:26;;;;;;;;;;;12.20;99.90;;;;;;5093534;28;20078;-70
2022/05/29 04:21:52;;;;;;;;;;;12.30;99.90;;;;;;5093670;28;20379;-70
2022/05/29 04:24:20;;;;;;;;;;;12.50;99.90;;;;;;5092191;28;19916;-70
2022/05/29 04:26:47;;;;;;;;;;;12.50;99.90;;;;;;5092175;28;19908;-71
2022/05/29 04:29:12;;;;;;;;;;;12.70;99.90;;;;;;5093491;28;20463;-70
2022/05/29 04:31:37;;;;;;;;;;;12.70;99.90;;;;;;5093498;28;20006;-70
2022/05/29 04:34:03;;;;;;;;;;;12.90;99.90;;;;;;5093204;28;20330;-70
2022/05/29 04:36:29;;;;;;;;;;;12.80;99.90;;;;;;5093236;28;19952;-70
2022/05/29 04:38:55;;;;;;;;;;;12.90;99.90;;;;;;5091823;28;19908;-69
2022/05/29 04:41:25;;;;;;;;;;;13.00;99.90;;;;;;5091700;28;19920;-70
2022/05/29 04:43:51;;;;;;;;;;;13.10;99.90;;;;;;5093066;28;19999;-69
2022/05/29 04:46:17;;;;;;;;;;;13.10;99.90;;;;;;5093572;28;19916;-70
2022/05/29 04:48:43;;;;;;;;;;;13.10;99.90;;;;;;5092906;28;19931;-70
2022/05/29 04:51:08;;;;;;;;;;;13.00;99.90;;;;;;5092880;28;19929;-70
2022/05/29 04:53:34;;;;;;;;;;;13.00;99.90;;;;;;5092780;28;19915;-70
2022/05/29 04:55:59;;;;;;;;;;;13.00;99.90;;;;;;5091454;28;19974;-71
2022/05/29 04:58:26;;;;;;;;;;;13.00;99.90;;;;;;5092815;28;19908;-71
2022/05/29 05:00:55;;;;;;;;;;;13.00;99.90;;;;;;5093045;28;19926;-69
2022/05/29 05:03:21;;;;;;;;;;;13.00;99.90;;;;;;5092650;28;19961;-70
2022/05/29 05:05:47;;;;;;;;;;;13.10;99.90;;;;;;5091679;28;19924;-70
2022/05/29 05:08:12;;;;;;;;;;;13.10;99.90;;;;;;5092596;28;19953;-70
2022/05/29 05:10:39;;;;;;;;;;;13.10;99.90;;;;;;5093012;28;19924;-69
2022/05/29 05:13:05;;;;;;;;;;;13.10;99.90;;;;;;5092470;28;19912;-70
2022/05/29 05:15:30;;;;;;;;;;;12.90;99.90;;;;;;5092772;28;19973;-71
2022/05/29 05:17:56;;;;;;;;;;;12.90;99.90;;;;;;5092443;28;19999;-71
2022/05/29 05:20:21;;;;;;;;;;;12.90;99.90;;;;;;5092115;28;20330;-70
2022/05/29 05:22:47;;;;;;;;;;;13.00;99.90;;;;;;5091318;28;20018;-70
2022/05/29 05:25:12;;;;;;;;;;;12.90;99.90;;;;;;5090208;28;19916;-70
2022/05/29 05:27:38;;;;;;;;;;;12.90;99.90;;;;;;5092175;28;20304;-70
2022/05/29 05:30:03;;;;;;;;;;;13.00;99.90;;;;;;5092194;28;20012;-70
2022/05/29 05:32:29;;;;;;;;;;;13.00;99.90;;;;;;5092168;28;20368;-70
2022/05/29 05:34:54;;;;;;;;;;;13.20;99.90;;;;;;5090717;28;19916;-71
2022/05/29 05:37:20;;;;;;;;;;;13.30;99.90;;;;;;5092169;28;19908;-70
2022/05/29 05:39:45;;;;;;;;;;;13.50;99.90;;;;;;5091926;28;19916;-70
2022/05/29 05:42:11;;;;;;;;;;;13.70;99.90;;;;;;5091965;28;19939;-71
2022/05/29 05:44:37;;;;;;;;;;;13.80;99.90;;;;;;5092127;28;19916;-70
2022/05/29 05:47:03;;;;;;;;;;;13.90;99.90;;;;;;5090605;28;19996;-71
2022/05/29 05:49:28;;;;;;;;;;;14.00;99.90;;;;;;5091772;28;19916;-69
2022/05/29 05:51:57;;;;;;;;;;;14.20;99.90;;;;;;5091821;28;19914;-70
2022/05/29 05:54:22;;;;;;;;;;;14.40;99.90;;;;;;5091573;28;20003;-71
2022/05/29 05:56:51;;;;;;;;;;;14.50;99.90;;;;;;5091767;28;19995;-70
2022/05/29 05:59:16;;;;;;;;;;;14.40;99.90;;;;;;5091546;28;20439;-69
2022/05/29 06:01:42;;;;;;;;;;;14.50;99.90;;;;;;5091664;28;20404;-65
2022/05/29 06:04:07;;;;;;;;;;;14.50;99.90;;;;;;5091697;28;19908;-67
2022/05/29 06:06:33;;;;;;;;;;;14.60;99.90;;;;;;5091652;28;19965;-68
2022/05/29 06:08:59;;;;;;;;;;;14.70;99.90;;;;;;5091453;28;20352;-67
2022/05/29 06:11:27;;;;;;;;;;;14.90;99.90;;;;;;5091856;28;19912;-71
2022/05/29 06:13:53;;;;;;;;;;;15.00;99.90;;;;;;5091889;28;19908;-70
2022/05/29 06:16:18;;;;;;;;;;;15.20;99.90;;;;;;5092278;28;19939;-70
2022/05/29 06:18:44;;;;;;;;;;;15.30;99.90;;;;;;5091561;28;20252;-71
2022/05/29 06:21:10;;;;;;;;;;;15.40;99.90;;;;;;5091321;28;19975;-70
2022/05/29 06:23:36;;;;;;;;;;;15.60;99.90;;;;;;5091795;28;19908;-70
2022/05/29 06:26:03;;;;;;;;;;;15.60;99.90;;;;;;5090345;28;20283;-70
2022/05/29 06:28:28;;;;;;;;;;;15.70;99.90;;;;;;5091507;28;19908;-70
2022/05/29 06:30:54;;;;;;;;;;;15.70;99.90;;;;;;5090309;28;19927;-71
2022/05/29 06:33:19;;;;;;;;;;;15.70;99.90;;;;;;5091675;28;20006;-71
2022/05/29 06:35:45;;;;;;;;;;;15.70;99.90;;;;;;5091751;28;20021;-71
2022/05/29 06:38:10;;;;;;;;;;;15.80;99.90;;;;;;5094101;28;20057;-70
2022/05/29 06:40:36;;;;;;;;;;;15.80;99.90;;;;;;5095680;28;19920;-70
2022/05/29 06:43:02;;;;;;;;;;;15.90;99.90;;;;;;5095604;28;20411;-71
2022/05/29 06:45:28;;;;;;;;;;;15.90;99.90;;;;;;5094443;28;20023;-70
2022/05/29 06:47:53;;;;;;;;;;;16.00;99.90;;;;;;5095584;28;20280;-70
2022/05/29 06:50:19;;;;;;;;;;;17.20;99.90;;;;;;5095581;28;19920;-71
2022/05/29 06:52:44;;;;;;;;;;;16.30;99.90;;;;;;5095488;28;19938;-71
2022/05/29 06:55:10;;;;;;;;;;;16.50;99.90;;;;;;5095650;28;19916;-70
2022/05/29 06:57:43;;;;;;;;;;;16.60;99.90;;;;;;5094001;28;20082;-72
2022/05/29 07:08:26;;;;;;;;;;;16.90;99.90;;;;;;5095285;28;19919;-70
2022/05/29 07:10:52;;;;;;;;;;;17.00;99.90;;;;;;5093474;28;19917;-70
2022/05/29 07:13:17;;;;;;;;;;;17.00;99.90;;;;;;5094887;28;19908;-71
2022/05/29 07:15:43;;;;;;;;;;;17.10;99.90;;;;;;5095473;28;20279;-71
2022/05/29 07:18:09;;;;;;;;;;;17.30;99.90;;;;;;5095207;28;19966;-68
2022/05/29 07:20:35;;;;;;;;;;;17.30;99.90;;;;;;5093444;28;20330;-70
2022/05/29 07:23:00;;;;;;;;;;;17.30;99.90;;;;;;5095192;28;19920;-69
2022/05/29 07:25:26;;;;;;;;;;;17.40;99.90;;;;;;5094785;28;19928;-69
2022/05/29 07:27:52;;;;;;;;;;;17.50;99.90;;;;;;5094789;28;19908;-71
2022/05/29 07:30:17;;;;;;;;;;;17.60;99.90;;;;;;5094753;28;20314;-71
2022/05/29 07:32:43;;;;;;;;;;;17.80;99.90;;;;;;5093391;28;19922;-70
2022/05/29 07:35:09;;;;;;;;;;;17.90;99.30;;;;;;5094687;28;19967;-70
2022/05/29 07:37:35;;;;;;;;;;;18.00;98.70;;;;;;5094758;28;19908;-70
2022/05/29 07:40:02;;;;;;;;;;;18.10;99.50;;;;;;5094508;28;19990;-71
2022/05/29 07:45:11;;;;;;;;;;;18.40;98.60;;;;;;5094579;28;19922;-72
2022/05/29 07:47:40;;;;;;;;;;;18.60;97.80;;;;;;5093882;28;19995;-72
2022/05/29 07:50:06;;;;;;;;;;;18.80;97.90;;;;;;5092423;28;19926;-71
2022/05/29 07:52:31;;;;;;;;;;;19.00;96.90;;;;;;5093918;28;19909;-71
2022/05/29 07:54:57;;;;;;;;;;;19.20;97.20;;;;;;5094403;28;19923;-71
2022/05/29 07:57:22;;;;;;;;;;;19.20;95.20;;;;;;5092381;28;19908;-71
2022/05/29 07:59:48;;;;;;;;;;;19.10;95.80;;;;;;5091892;28;20057;-71
2022/05/29 08:02:14;;;;;;;;;;;19.30;96.50;;;;;;5093016;28;19995;-71
2022/05/29 08:04:42;;;;;;;;;;;19.30;94.40;;;;;;5091719;28;19924;-72
2022/05/29 08:07:08;;;;;;;;;;;19.10;94.50;;;;;;5091773;28;19909;-75
2022/05/29 08:09:33;;;;;;;;;;;19.20;94.60;;;;;;5093014;28;20299;-72
2022/05/29 08:11:59;;;;;;;;;;;19.30;95.40;;;;;;5092909;28;20212;-72
2022/05/29 08:14:24;;;;;;;;;;;19.60;95.30;;;;;;5092583;28;20476;-73
2022/05/29 08:16:50;;;;;;;;;;;19.90;93.60;;;;;;5092868;28;20421;-69
2022/05/29 08:19:15;;;;;;;;;;;19.80;92.70;;;;;;5092638;28;20016;-69
2022/05/29 08:21:43;;;;;;;;;;;19.50;92.80;;;;;;5092617;28;20352;-69
2022/05/29 08:32:21;;;;;;;;;;;19.40;92.10;;;;;;5092393;28;19963;-70
2022/05/29 08:34:46;;;;;;;;;;;19.10;93.10;;;;;;5092568;28;19959;-69
2022/05/29 08:37:12;;;;;;;;;;;19.20;92.60;;;;;;5091972;28;20364;-68
2022/05/29 08:39:38;;;;;;;;;;;19.50;92.20;;;;;;5092468;28;20011;-67
2022/05/29 08:42:04;;;;;;;;;;;19.90;91.30;;;;;;5092100;28;20372;-68
2022/05/29 08:44:47;;;;;;;;;;;20.20;91.60;;;;;;5092562;28;20256;-67
2022/05/29 08:47:13;;;;;;;;;;;20.30;90.70;;;;;;5092716;28;19913;-68
2022/05/29 08:49:48;;;;;;;;;;;20.50;90.00;;;;;;5093261;28;20335;-68
2022/05/29 08:52:32;;;;;;;;;;;20.30;87.20;;;;;;5092465;28;19908;-67
2022/05/29 08:55:06;;;;;;;;;;;20.20;87.90;;;;;;5091344;28;19923;-67
2022/05/29 08:57:38;;;;;;;;;;;20.30;89.50;;;;;;5092646;28;20462;-69
2022/05/29 09:00:05;;;;;;;;;;;20.70;87.70;;;;;;5090134;28;20352;-68
2022/05/29 09:02:46;;;;;;;;;;;21.00;88.50;;;;;;5092482;28;19912;-68
2022/05/29 09:05:28;;;;;;;;;;;21.30;85.70;;;;;;5092736;28;20277;-67
2022/05/29 09:07:56;;;;;;;;;;;21.20;84.80;;;;;;5091135;28;19908;-68
2022/05/29 09:10:33;;;;;;;;;;;21.30;85.70;;;;;;5092874;28;19920;-68
2022/05/29 09:13:01;;;;;;;;;;;21.60;87.30;;;;;;5092465;28;20359;-67
2022/05/29 09:15:36;;;;;;;;;;;22.00;84.10;;;;;;5092630;28;19916;-67
2022/05/29 09:18:04;;;;;;;;;;;22.10;82.30;;;;;;5092336;28;19938;-69
2022/05/29 09:21:02;;;;;;;;;;;21.90;80.40;;;;;;5090599;28;19928;-67
2022/05/29 09:23:31;;;;;;;;;;;21.30;80.60;;;;;;5057789;28;19908;-67
2022/05/29 09:25:56;;;;;;;;;;;22.00;81.40;;;;;;5091082;28;19920;-67
2022/05/29 09:28:41;;;;;;;;;;;21.50;80.60;;;;;;5092131;28;20207;-67
2022/05/29 09:31:08;;;;;;;;;;;21.40;79.90;;;;;;5092616;28;20277;-71
2022/05/29 09:33:35;;;;;;;;;;;21.40;78.40;;;;;;5092338;28;19915;-70
2022/05/29 09:36:07;;;;;;;;;;;21.50;78.70;;;;;;5090920;28;20018;-70
2022/05/29 09:38:36;;;;;;;;;;;21.50;77.20;;;;;;5092429;28;19970;-70
2022/05/29 09:41:05;;;;;;;;;;;21.60;79.70;;;;;;5092442;28;19920;-70
2022/05/29 09:43:30;;;;;;;;;;;22.10;78.00;;;;;;5091867;28;19908;-69
2022/05/29 09:46:15;;;;;;;;;;;21.90;75.80;;;;;;5091737;28;20014;-70
2022/05/29 09:51:30;;;;;;;;;;;22.10;75.60;;;;;;5091900;28;19927;-71
2022/05/29 09:53:57;;;;;;;;;;;22.40;75.50;;;;;;5091995;28;19954;-72
2022/05/29 09:56:25;;;;;;;;;;;22.80;74.40;;;;;;5092055;28;20309;-71
2022/05/29 09:58:52;;;;;;;;;;;22.90;70.80;;;;;;5091954;28;19961;-71
2022/05/29 10:01:34;;;;;;;;;;;22.70;71.10;;;;;;5092055;28;19985;-71
2022/05/29 10:04:00;;;;;;;;;;;22.50;72.60;;;;;;5091464;28;19912;-71
2022/05/29 10:06:29;;;;;;;;;;;23.00;73.90;;;;;;5091757;28;19908;-71
2022/05/29 10:09:03;;;;;;;;;;;23.50;71.50;;;;;;5091923;28;19908;-71
2022/05/29 10:11:31;;;;;;;;;;;23.80;69.20;;;;;;5091240;28;19923;-71
2022/05/29 10:14:00;;;;;;;;;;;23.90;67.50;;;;;;5091535;28;19957;-71
2022/05/29 10:16:30;;;;;;;;;;;23.70;67.10;;;;;;5091641;28;19912;-70
2022/05/29 10:18:56;;;;;;;;;;;23.30;67.00;;;;;;5091327;28;20058;-70
2022/05/29 10:21:23;;;;;;;;;;;23.10;65.80;;;;;;5089932;28;20010;-71
2022/05/29 10:24:09;;;;;;;;;;;23.20;66.20;;;;;;5090355;28;21412;-71
2022/05/29 10:26:36;;;;;;;;;;;23.70;68.10;;;;;;5091236;28;19916;-70
2022/05/29 10:29:11;;;;;;;;;;;23.90;65.10;;;;;;5091523;28;19973;-70
2022/05/29 10:31:38;;;;;;;;;;;24.10;66.30;;;;;;5091437;28;20284;-70
2022/05/29 10:34:06;;;;;;;;;;;24.20;66.40;;;;;;5091016;28;20314;-70
2022/05/29 10:36:32;;;;;;;;;;;24.20;64.70;;;;;;5091129;28;19913;-71
2022/05/29 10:39:17;;;;;;;;;;;23.40;64.70;;;;;;5091045;28;20011;-70
2022/05/29 10:41:43;;;;;;;;;;;22.70;66.50;;;;;;5090710;28;19920;-70
2022/05/29 10:44:13;;;;;;;;;;;22.20;67.90;;;;;;5091095;28;20071;-70
2022/05/29 10:46:40;;;;;;;;;;;22.40;66.50;;;;;;5089954;28;19918;-71
2022/05/29 10:49:06;;;;;;;;;;;22.80;66.40;;;;;;5091109;28;19919;-70
2022/05/29 10:51:37;;;;;;;;;;;23.00;63.50;;;;;;5091318;28;19958;-70
2022/05/29 10:54:21;;;;;;;;;;;23.50;64.50;;;;;;5091027;28;19908;-71
2022/05/29 10:57:06;;;;;;;;;;;23.50;63.80;;;;;;5089877;28;19961;-70
2022/05/29 10:59:43;;;;;;;;;;;23.80;64.90;;;;;;5091225;28;20309;-70
2022/05/29 11:05:25;;;;;;;;;;;24.30;63.90;;;;;;5077778;28;19912;-71
2022/05/29 11:07:55;;;;;;;;;;;24.40;60.80;;;;;;5091096;28;19916;-70
2022/05/29 11:10:25;;;;;;;;;;;24.50;60.50;;;;;;5089740;28;19916;-71
2022/05/29 11:12:50;;;;;;;;;;;24.30;59.90;;;;;;5089639;28;19916;-71
2022/05/29 11:15:28;;;;;;;;;;;24.40;62.50;;;;;;5091090;28;19969;-70
2022/05/29 11:18:04;;;;;;;;;;;24.70;61.00;;;;;;5091003;28;20278;-70
2022/05/29 11:20:30;;;;;;;;;;;24.90;61.50;;;;;;5090563;28;20374;-71
2022/05/29 11:23:17;;;;;;;;;;;24.40;60.60;;;;;;5090912;28;19923;-71
2022/05/29 11:25:54;;;;;;;;;;;23.80;61.00;;;;;;5094943;28;20394;-71
2022/05/29 11:28:23;;;;;;;;;;;23.30;60.70;;;;;;5093349;28;20292;-70
2022/05/29 11:30:57;;;;;;;;;;;22.80;61.00;;;;;;5094723;28;20008;-70
2022/05/29 11:33:41;;;;;;;;;;;22.60;60.70;;;;;;5093190;28;19973;-71
2022/05/29 11:36:10;;;;;;;;;;;22.50;63.10;;;;;;5094391;28;19908;-70
2022/05/29 11:38:58;;;;;;;;;;;22.90;61.70;;;;;;5093093;28;20376;-71
2022/05/29 11:41:24;;;;;;;;;;;23.50;62.00;;;;;;5085755;28;19924;-71
2022/05/29 11:44:12;;;;;;;;;;;23.80;60.70;;;;;;5094358;28;20025;-71
2022/05/29 11:52:13;;;;;;;;;;;22.80;63.00;;;;;;5094106;28;19973;-70
2022/05/29 11:54:59;;;;;;;;;;;22.60;62.90;;;;;;5094084;28;20309;-71
2022/05/29 11:57:31;;;;;;;;;;;22.50;62.60;;;;;;5078753;28;19923;-71
2022/05/29 12:00:07;;;;;;;;;;;22.40;61.60;;;;;;5093818;28;19965;-70
2022/05/29 12:02:49;;;;;;;;;;;22.50;60.90;;;;;;5092635;28;19924;-70
2022/05/29 12:05:26;;;;;;;;;;;22.30;60.70;;;;;;5094008;28;19962;-70
2022/05/29 12:08:00;;;;;;;;;;;22.10;61.30;;;;;;5092619;28;19916;-70
2022/05/29 12:10:27;;;;;;;;;;;22.00;61.70;;;;;;5094018;28;19930;-70
2022/05/29 12:12:58;;;;;;;;;;;22.40;63.20;;;;;;5093753;28;19919;-70
2022/05/29 12:15:24;;;;;;;;;;;22.80;61.00;;;;;;5092229;28;20305;-70
2022/05/29 12:17:55;;;;;;;;;;;23.20;61.10;;;;;;5093622;28;20019;-70
2022/05/29 12:20:24;;;;;;;;;;;23.20;60.40;;;;;;5093247;28;19981;-71
2022/05/29 12:22:55;;;;;;;;;;;23.00;60.40;;;;;;5093535;28;20569;-71
2022/05/29 12:25:32;;;;;;;;;;;22.90;61.30;;;;;;5093597;28;19912;-71
2022/05/29 12:28:00;;;;;;;;;;;23.00;60.50;;;;;;5093503;28;19920;-70
2022/05/29 12:30:32;;;;;;;;;;;23.00;60.90;;;;;;5093437;28;19908;-70
2022/05/29 12:33:01;;;;;;;;;;;23.10;59.60;;;;;;5093381;28;19965;-70
2022/05/29 12:35:35;;;;;;;;;;;22.80;59.20;;;;;;5093254;28;20352;-70
2022/05/29 12:38:04;;;;;;;;;;;22.50;59.70;;;;;;5091724;28;19917;-70
2022/05/29 12:40:38;;;;;;;;;;;22.50;60.40;;;;;;5093208;28;19923;-71
2022/05/29 12:43:13;;;;;;;;;;;22.30;60.50;;;;;;5093323;28;19916;-71
2022/05/29 12:45:38;;;;;;;;;;;22.20;61.20;;;;;;5093344;28;19912;-72
2022/05/29 12:48:30;;;;;;;;;;;22.10;60.60;;;;;;5091670;28;19916;-70
2022/05/29 12:50:55;;;;;;;;;;;22.00;60.90;;;;;;5091420;28;19951;-71
2022/05/29 12:53:31;;;;;;;;;;;22.10;61.60;;;;;;5092925;28;19967;-71
2022/05/29 12:56:06;;;;;;;;;;;22.10;61.20;;;;;;5093313;28;20374;-70
2022/05/29 12:58:38;;;;;;;;;;;22.20;62.30;;;;;;5092937;28;19978;-71
2022/05/29 13:01:15;;;;;;;;;;;22.10;60.50;;;;;;5092880;28;19912;-70
2022/05/29 13:03:49;;;;;;;;;;;21.90;61.60;;;;;;5092703;28;20058;-70
2022/05/29 13:06:15;;;;;;;;;;;21.60;62.50;;;;;;5093103;28;19961;-70
2022/05/29 13:08:50;;;;;;;;;;;21.50;62.50;;;;;;5092654;28;19916;-71
2022/05/29 13:11:21;;;;;;;;;;;21.60;63.60;;;;;;5092744;28;19914;-71
2022/05/29 13:13:48;;;;;;;;;;;21.60;63.70;;;;;;5092484;28;19923;-70
2022/05/29 13:16:18;;;;;;;;;;;21.60;64.80;;;;;;5092934;28;19915;-70
2022/05/29 13:19:24;;;;;;;;;;;21.50;61.80;;;;;;5092417;28;19923;-70
2022/05/29 13:21:55;;;;;;;;;;;21.20;62.60;;;;;;5083015;28;19950;-70
2022/05/29 13:24:21;;;;;;;;;;;21.10;63.20;;;;;;5092318;28;19935;-71
2022/05/29 13:27:07;;;;;;;;;;;21.00;62.70;;;;;;5091960;28;19920;-70
2022/05/29 13:29:38;;;;;;;;;;;21.10;63.60;;;;;;5090868;28;20378;-71
2022/05/29 13:32:13;;;;;;;;;;;21.20;63.70;;;;;;5092222;28;19928;-71
2022/05/29 13:35:05;;;;;;;;;;;21.00;64.50;;;;;;5092219;28;19954;-72
2022/05/29 13:37:39;;;;;;;;;;;21.00;64.60;;;;;;5067996;28;19927;-71
2022/05/29 13:40:06;;;;;;;;;;;21.10;64.50;;;;;;5092228;28;19961;-70
2022/05/29 13:42:36;;;;;;;;;;;21.20;64.60;;;;;;5091937;28;20322;-70
2022/05/29 13:45:37;;;;;;;;;;;21.20;64.10;;;;;;5090551;28;19911;-70
2022/05/29 13:48:05;;;;;;;;;;;21.30;64.60;;;;;;5029101;28;19924;-70
2022/05/29 13:50:33;;;;;;;;;;;21.20;65.20;;;;;;5080014;28;19908;-70
2022/05/29 13:53:03;;;;;;;;;;;21.10;64.60;;;;;;5091773;28;19920;-70
2022/05/29 13:55:34;;;;;;;;;;;20.90;63.80;;;;;;5092100;28;19912;-70
2022/05/29 14:03:58;;;;;;;;;;;20.80;64.70;;;;;;5091675;28;20411;-71
2022/05/29 14:06:32;;;;;;;;;;;20.80;64.00;;;;;;5090286;28;19916;-71
2022/05/29 14:08:58;;;;;;;;;;;20.80;64.30;;;;;;5091409;28;19908;-70
2022/05/29 14:11:42;;;;;;;;;;;20.60;64.50;;;;;;5091617;28;20028;-71
2022/05/29 14:14:27;;;;;;;;;;;20.60;65.10;;;;;;5091432;28;19908;-70
2022/05/29 14:16:53;;;;;;;;;;;20.60;65.10;;;;;;5090063;28;19916;-70
2022/05/29 14:19:21;;;;;;;;;;;20.50;65.90;;;;;;5091574;28;19908;-70
2022/05/29 14:22:05;;;;;;;;;;;20.40;65.60;;;;;;5091141;28;20273;-71
2022/05/29 14:24:33;;;;;;;;;;;20.40;66.50;;;;;;5091283;28;20370;-70
2022/05/29 14:26:59;;;;;;;;;;;20.50;67.20;;;;;;5091413;28;19912;-71
2022/05/29 14:29:28;;;;;;;;;;;20.50;67.00;;;;;;5091298;28;19950;-71
2022/05/29 14:31:53;;;;;;;;;;;20.60;67.10;;;;;;5091128;28;20061;-71
2022/05/29 14:34:28;;;;;;;;;;;20.70;66.00;;;;;;5091394;28;20339;-71
2022/05/29 14:36:53;;;;;;;;;;;20.80;65.60;;;;;;5091333;28;19912;-70
2022/05/29 14:39:33;;;;;;;;;;;20.80;66.30;;;;;;5091302;28;19920;-70
2022/05/29 14:42:22;;;;;;;;;;;20.90;65.20;;;;;;5091176;28;19916;-70
2022/05/29 14:45:07;;;;;;;;;;;20.80;66.20;;;;;;5083074;28;19982;-71
2022/05/29 14:47:45;;;;;;;;;;;20.80;66.70;;;;;;5091273;28;19919;-71
2022/05/29 14:50:16;;;;;;;;;;;20.80;67.00;;;;;;5089984;28;20003;-70
2022/05/29 14:52:41;;;;;;;;;;;20.80;65.80;;;;;;5091194;28;19923;-71
2022/05/29 14:55:18;;;;;;;;;;;20.80;65.90;;;;;;5091489;28;19912;-70
2022/05/29 14:57:48;;;;;;;;;;;20.70;65.50;;;;;;5092611;28;19931;-70
2022/05/29 15:00:38;;;;;;;;;;;20.60;66.00;;;;;;5095056;28;19912;-70
2022/05/29 15:03:26;;;;;;;;;;;20.50;66.00;;;;;;5087157;28;20355;-71
2022/05/29 15:05:53;;;;;;;;;;;20.40;65.70;;;;;;5095424;28;20246;-71
2022/05/29 15:11:06;;;;;;;;;;;20.30;65.50;;;;;;5095625;28;19961;-71
2022/05/29 15:13:56;;;;;;;;;;;20.30;65.60;;;;;;5094748;28;20421;-71
2022/05/29 15:16:26;;;;;;;;;;;20.40;66.00;;;;;;5095303;28;20019;-71